Flight Track Log - Related Links

Times and Time Zones

All times are in EDT time to prevent confusion due to time zone crossing. See the N70AG flight status page for this flight to view local times or setup timezone preferences in your user account.

Time Position Orientation Groundspeed Altitude Reporting Facility
EDT Latitude Longitude Course Direction KTS MPH feet Rate Location/Type
Wed 06:20:30 PM 35.1739 -79.3781 194° South 261 300 5,100  Level Washington Center
Wed 06:21:30 PM 35.1289 -79.4775 241° Southwest 285 328 10,400 3,675 Climbing Washington Center
Wed 06:23:59 PM 34.9097 -79.6042 205° Southwest 353 406 17,900 2,986 Climbing Jacksonville Center
Wed 06:24:00 PM 34.8523 -79.4776 194° South  Level FlightAware Approximate
Wed 06:24:59 PM 34.7975 -79.6289 190° South 387 445 20,800  Level Jacksonville Center
Wed 06:25:00 PM 34.7767 -79.5003 194° South  Level FlightAware Approximate
Wed 06:25:59 PM 34.6794 -79.6536 190° South 411 473 23,000  Level Jacksonville Center
Wed 06:26:00 PM 34.7011 -79.5230 194° South  Level FlightAware Approximate
Wed 06:26:59 PM 34.5653 -79.6806 191° South 425 489 23,000  Level Jacksonville Center
Wed 06:27:59 PM 34.4472 -79.7075 191° South 437 503 23,000  Level Jacksonville Center
Wed 06:28:59 PM 34.3289 -79.7319 190° South 437 503 23,000 -100 Level Jacksonville Center
Wed 06:29:59 PM 34.2128 -79.7589 191° South 431 496 22,800 -900 Descending Jacksonville Center
Wed 06:30:59 PM 34.0944 -79.7831 190° South 431 496 21,200 -1,600 Descending Jacksonville Center
Wed 06:31:59 PM 33.9761 -79.8097 191° South 431 496 19,600 -1,700 Descending Jacksonville Center
Wed 06:32:59 PM 33.8597 -79.8339 190° South 431 496 17,800 -1,950 Descending Jacksonville Center
Wed 06:33:59 PM 33.7478 -79.8553 189° South 426 490 15,700 -1,950 Descending Jacksonville Center
Wed 06:34:59 PM 33.6356 -79.8817 191° South 420 483 13,900 -1,850 Descending Jacksonville Center
Wed 06:35:59 PM 33.5339 -79.9025 190° South 403 464 12,000 -1,450 Descending Jacksonville Center
Wed 06:36:59 PM 33.4281 -79.9261 191° South 397 457 11,000 -700 Descending Jacksonville Center
Wed 06:37:59 PM 33.3242 -79.9469 190° South 386 444 10,600 -1,150 Descending Jacksonville Center
Wed 06:38:59 PM 33.2389 -79.9622 189° South 357 411 8,700 -2,050 Descending Jacksonville Center
Wed 06:39:59 PM 33.1975 -79.8864 123° Southeast 261 300 6,500 -2,250 Descending Jacksonville Center
Wed 06:40:59 PM 33.1603 -79.8133 121° Southeast 237 273 4,200 -2,250 Descending Jacksonville Center
Wed 06:41:59 PM 33.1111 -79.8572 217° Southwest 176 203 2,000 -1,300 Descending Jacksonville Center
Wed 06:42:59 PM 33.0733 -79.9278 237° Southwest 184 212 1,600 -200 Descending Jacksonville Center
Wed 06:43:59 PM 33.0200 -79.9767 218° Southwest 213 245 1,600  Level Jacksonville Center
Wed 06:44:59 PM 32.9706 -80.0031 204° Southwest 221 254 1,600  Level Jacksonville Center
Wed 06:46:00 PM 32.8903 -80.0319 190° South  Level FlightAware Approximate
Wed 06:53:00 PM 32.8833 -80.0333 North  Level FlightAware Approximate
Wed 06:54:00 PM 32.8986 -80.0405 North  Level Estimated
Wed 06:55:00 PM 32.8986 -80.0405 North  Level Estimated
Wed 06:56:00 PM 32.8986 -80.0405 North  Level Estimated

Login

Don't have an account? Register now (free) for customized features, flight alerts, and more!